METAR stanice u blizini

 

LYBE - Beograd / Surčin, Srbija
Ažurirano: 06/04/2020 18:30
Vedro
Vedro
 Pravac vetra I
Vetar: I 28 km/h
Temperatura: 15°C
Tačka rose: -9°C
Vlažnost: 18%
Pritisak: 1030 hPa
Pregled: Vedro
Vidljivost: greater than 10 km
2020/04/06 16:30 LYBE 061630Z 10015KT CAVOK 15/M09 Q1030 NOSIG
LYBT - Beograd / Batajnica, Srbija
Ažurirano: 06/04/2020 18:30
Vedro
Vedro
 Pravac vetra ISI
Vetar: ISI 22 km/h
Temperatura: 15°C
Tačka rose: -11°C
Vlažnost: 16%
Pritisak: 1030 hPa
Pregled: Vedro
Vidljivost: greater than 10 km
2020/04/06 16:30 LYBT 061630Z 07012KT 040V100 CAVOK 15/M11 Q1030 NOSIG
LYVR - Vršac, Srbija
Ažurirano: 06/04/2020 18:30
Vedro
Vedro
 Pravac vetra JI
Vetar: JI 15 km/h
Temperatura: 17°C
Tačka rose: -11°C
Vlažnost: 14%
Pritisak: 1031 hPa
Pregled: Vedro
Vidljivost: greater than 10 km
2020/04/06 16:30 LYVR 061630Z AUTO 13008KT 070V180 CAVOK 17/M11 Q1031
 
LYKV - Lađevci, Srbija
Ažurirano: 06/04/2020 18:30
Vedro
Vedro
 Pravac vetra I
Vetar: I 15 km/h
Temperatura: 14°C
Tačka rose: -8°C
Vlažnost: 21%
Pritisak: 1030 hPa
Pregled: Vedro
Vidljivost: greater than 10 km
2020/04/06 16:30 LYKV 061630Z 09008KT 060V120 CAVOK 14/M08 Q1030 NOSIG
LYNI - Niš, Srbija
Ažurirano: 06/04/2020 18:30
Vedro
Vedro
 Pravac vetra SI
Vetar: SI 26 km/h
Temperatura: 14°C
Tačka rose: -9°C
Vlažnost: 20%
Pritisak: 1029 hPa
Pregled: Vedro
Vidljivost: greater than 10 km
2020/04/06 16:30 LYNI 061630Z 04014KT 020V080 CAVOK 14/M09 Q1029 NOSIG
BKPR - Priština, Srbija
Ažurirano: 06/04/2020 19:00
Vedro
Vedro
 Pravac vetra SI
Vetar: SI 22 km/h
Temperatura: 12°C
Tačka rose: -10°C
Vlažnost: 21%
Pritisak: 1027 hPa
Pregled: Vedro
Vidljivost: greater than 10 km
2020/04/06 17:00 BKPR 061700Z 04012KT CAVOK 12/M10 Q1027 NOSIG
 
LHPP - Pecs / Pogany, Hungary
Ažurirano: 06/04/2020 18:15
Vedro
Vedro
 Pravac vetra IJI
Vetar: IJI 26 km/h
Temperatura: 16°C
Tačka rose: -7°C
Vlažnost: 20%
Pritisak: 1029 hPa
Pregled: Vedro
Vidljivost: greater than 10 km
2020/04/06 16:15 LHPP 061615Z 11014KT CAVOK 16/M07 Q1029
LHUD - Szeged, Hungary
Ažurirano: 04/07/2019 01:45
NOT Current
Vedro
Vedro
 Pravac vetra S
Vetar: S 7 km/h
Temperatura: 18°C
Tačka rose: 13°C
Vlažnost: 73%
Pritisak: 1019 hPa
Pregled: Vedro
Vidljivost: greater than 10 km
2019/07/03 23:45 LHUD 032345Z 35004KT CAVOK 18/13 Q1019
LRTR - Timisoara, Romania
Ažurirano: 06/04/2020 18:30
Vedro
Vedro
 Pravac vetra ISI
Vetar: ISI 6 km/h
Temperatura: 16°C
Tačka rose: -2°C
Vlažnost: 29%
Pritisak: 1031 hPa
Pregled: Vedro
Vidljivost: greater than 10 km
2020/04/06 16:30 LRTR 061630Z 06003KT CAVOK 16/M02 Q1031 NOSIG
 
LRCV - Craiova, Romania
Ažurirano: 06/04/2020 18:30
Vedro
Vedro
 Pravac vetra ISI
Vetar: ISI 22 km/h
Temperatura: 12°C
Tačka rose: -5°C
Vlažnost: 30%
Pritisak: 1032 hPa
Pregled: Vedro
Vidljivost: greater than 10 km
2020/04/06 16:30 LRCV 061630Z 07012KT CAVOK 12/M05 Q1032
LBSF - Sofia, Bulgaria
Ažurirano: 06/04/2020 18:30
Vedro
Vedro
 Pravac vetra ISI
Vetar: ISI 20 km/h
Temperatura: 10°C
Osećaj hladnoće: 7°C
Tačka rose: -4°C
Vlažnost: 37%
Pritisak: 1029 hPa
Pregled: Vedro
Vidljivost: greater than 10 km
2020/04/06 16:30 LBSF 061630Z 06011KT 030V090 CAVOK 10/M04 Q1029 NOSIG
LWSK - Skoplje, Makedonija
Ažurirano: 06/04/2020 18:30
Vedro
Vedro
 Pravac vetra SI
Vetar: SI 19 km/h
Temperatura: 15°C
Tačka rose: -5°C
Vlažnost: 25%
Pritisak: 1026 hPa
Pregled: Vedro
Vidljivost: greater than 10 km
2020/04/06 16:30 LWSK 061630Z 05010KT CAVOK 15/M05 Q1026 NOSIG
 
LYPG - Podgorica, Crna Gora
Ažurirano: 06/04/2020 18:30
Vedro
Vedro
 Pravac vetra JJZ
Vetar: JJZ 7 km/h
Temperatura: 20°C
Tačka rose: -6°C
Vlažnost: 17%
Pritisak: 1023 hPa
Pregled: Vedro
Vidljivost: greater than 10 km
2020/04/06 16:30 LYPG 061630Z 21004KT CAVOK 20/M06 Q1023 NOSIG
LQSA - Sarajevo, Bosna i Hercegovina
Ažurirano: 06/04/2020 15:30
NOT Current
Vedro
Vedro
 Pravac vetra ISI
Vetar: ISI 19 km/h
Temperatura: 18°C
Tačka rose: -8°C
Vlažnost: 16%
Pritisak: 1025 hPa
Pregled: Vedro
Vidljivost: greater than 10 km
2020/04/06 13:30 LQSA 061330Z 06010KT 020V130 CAVOK 18/M08 Q1025 NOSIG
LDOS - Osijek, Hrvatksa
Ažurirano: 06/04/2020 18:30
Vedro
Vedro
 Pravac vetra I
Vetar: I 33 km/h
Temperatura: 15°C
Tačka rose: -7°C
Vlažnost: 21%
Pritisak: 1029 hPa
Pregled: Vedro
Vidljivost: greater than 10 km
2020/04/06 16:30 LDOS 061630Z 09018KT CAVOK 15/M07 Q1029